createdAt,value
2017-09-24T00:01:04.842Z,31.36
2017-09-24T00:03:49.998Z,31.52
2017-09-24T00:06:18.274Z,30.10
2017-09-24T00:08:46.577Z,27.22
2017-09-24T00:11:14.881Z,31.38
2017-09-24T00:13:44.123Z,28.02
2017-09-24T00:16:12.394Z,32.80
2017-09-24T00:18:40.646Z,29.42
2017-09-24T00:21:08.947Z,29.82
2017-09-24T00:23:37.218Z,30.62
2017-09-24T00:26:05.541Z,29.26
2017-09-24T00:28:36.153Z,31.36
2017-09-24T00:31:05.683Z,28.74
2017-09-24T00:33:40.425Z,30.80
2017-09-24T00:36:08.707Z,29.54
2017-09-24T00:38:37.021Z,30.20
2017-09-24T00:41:05.280Z,27.42
2017-09-24T00:43:34.482Z,29.08
2017-09-24T00:46:03.408Z,29.72
2017-09-24T00:48:35.877Z,32.72
2017-09-24T00:51:05.377Z,28.44
2017-09-24T00:53:41.882Z,35.62
2017-09-24T00:56:10.152Z,32.30
2017-09-24T00:58:39.382Z,27.60
2017-09-24T01:01:07.679Z,31.52
2017-09-24T01:03:35.953Z,32.76
2017-09-24T01:06:05.510Z,28.34
2017-09-24T01:08:36.244Z,27.84
2017-09-24T01:11:05.700Z,28.58
2017-09-24T01:13:34.906Z,34.28
2017-09-24T01:16:04.332Z,31.00
2017-09-24T01:18:34.347Z,30.16
2017-09-24T01:21:04.318Z,27.24
2017-09-24T01:23:49.615Z,28.06
2017-09-24T01:26:17.932Z,33.94
2017-09-24T01:28:48.777Z,29.72
2017-09-24T01:31:17.101Z,31.58
2017-09-24T01:33:51.376Z,30.20
2017-09-24T01:36:20.520Z,29.78
2017-09-24T01:38:51.026Z,30.90
2017-09-24T01:41:19.325Z,30.12
2017-09-24T01:43:47.641Z,34.52
2017-09-24T01:46:15.899Z,30.62
2017-09-24T01:48:46.188Z,33.24
2017-09-24T01:51:14.447Z,29.06
2017-09-24T01:53:45.852Z,30.10
2017-09-24T01:56:14.141Z,30.88
2017-09-24T01:58:45.895Z,28.94
2017-09-24T02:01:14.192Z,31.82
2017-09-24T02:03:42.465Z,30.34
2017-09-24T02:06:10.754Z,32.42
2017-09-24T02:08:48.814Z,31.12
2017-09-24T02:11:17.069Z,28.90
2017-09-24T02:13:46.297Z,29.84
2017-09-24T02:16:14.559Z,30.48
2017-09-24T02:18:42.815Z,27.50
2017-09-24T02:21:11.086Z,29.38
2017-09-24T02:23:40.286Z,30.94
2017-09-24T02:26:08.599Z,34.78
2017-09-24T02:28:40.583Z,28.38
2017-09-24T02:31:08.882Z,29.46
2017-09-24T02:33:40.676Z,34.66
2017-09-24T02:36:08.990Z,29.60
2017-09-24T02:38:48.403Z,31.60
2017-09-24T02:41:16.744Z,34.30
2017-09-24T02:43:45.008Z,31.42
2017-09-24T02:46:13.267Z,35.20
2017-09-24T02:48:41.556Z,32.82
2017-09-24T02:51:09.816Z,28.36
2017-09-24T02:53:40.019Z,30.02
2017-09-24T02:56:08.318Z,30.82
2017-09-24T02:58:37.562Z,31.60
2017-09-24T03:01:05.830Z,44.76
2017-09-24T03:03:38.765Z,31.86
2017-09-24T03:06:07.024Z,32.42
2017-09-24T03:08:36.295Z,33.62
2017-09-24T03:11:05.812Z,29.88
2017-09-24T03:13:35.061Z,33.54
2017-09-24T03:16:03.964Z,40.22
2017-09-24T03:18:32.248Z,32.44
2017-09-24T03:21:00.538Z,38.20
2017-09-24T03:23:28.792Z,35.06
2017-09-24T03:25:56.283Z,32.52
2017-09-24T03:28:24.585Z,35.92
2017-09-24T03:30:52.884Z,34.68
2017-09-24T03:33:21.179Z,35.42
2017-09-24T03:35:50.519Z,30.94
2017-09-24T03:38:20.783Z,33.12
2017-09-24T03:40:49.635Z,32.16
2017-09-24T03:43:18.899Z,37.54
2017-09-24T03:45:47.154Z,29.42
2017-09-24T03:48:15.447Z,29.52
2017-09-24T03:50:43.751Z,27.74
2017-09-24T03:53:12.011Z,34.46
2017-09-24T03:55:40.280Z,35.62
2017-09-24T03:58:08.570Z,32.42
2017-09-24T04:00:36.826Z,33.66
2017-09-24T04:03:26.256Z,32.56
2017-09-24T04:05:54.551Z,37.60
2017-09-24T04:08:24.750Z,35.18
2017-09-24T04:10:53.057Z,34.46
2017-09-24T04:16:13.990Z,28.06
2017-09-24T04:18:42.250Z,36.02
2017-09-24T04:21:12.500Z,31.94
2017-09-24T04:23:40.748Z,31.28
2017-09-24T04:26:09.014Z,28.88
2017-09-24T04:28:37.319Z,32.64
2017-09-24T04:31:05.586Z,32.00
2017-09-24T04:33:36.357Z,35.58
2017-09-24T04:36:05.767Z,29.62
2017-09-24T04:38:46.558Z,34.40
2017-09-24T04:41:14.827Z,33.00
2017-09-24T04:43:43.997Z,33.58
2017-09-24T04:46:12.295Z,32.42
2017-09-24T04:48:40.542Z,28.52
2017-09-24T04:51:08.794Z,29.60
2017-09-24T04:53:50.461Z,33.86
2017-09-24T04:56:18.723Z,37.42
2017-09-24T04:58:57.250Z,38.26
2017-09-24T05:01:25.515Z,39.38
2017-09-24T05:04:00.390Z,35.66
2017-09-24T05:06:29.048Z,33.02
2017-09-24T05:09:00.784Z,32.42
2017-09-24T05:11:29.051Z,41.14
2017-09-24T05:14:00.799Z,33.48
2017-09-24T05:16:29.070Z,38.30
2017-09-24T05:19:00.706Z,36.74
2017-09-24T05:21:28.966Z,34.56
2017-09-24T05:23:57.235Z,32.84
2017-09-24T05:26:25.523Z,35.04
2017-09-24T05:28:53.786Z,32.88
2017-09-24T05:31:22.087Z,30.28
2017-09-24T05:34:00.520Z,32.10
2017-09-24T05:36:28.802Z,38.56
2017-09-24T05:38:59.977Z,32.72
2017-09-24T05:41:28.283Z,37.84
2017-09-24T05:44:04.775Z,33.62
2017-09-24T05:46:34.300Z,33.74
2017-09-24T05:49:03.769Z,33.70
2017-09-24T05:51:32.157Z,37.40
2017-09-24T05:54:00.410Z,33.74
2017-09-24T05:56:28.666Z,27.80
2017-09-24T05:58:57.852Z,31.32
2017-09-24T06:01:26.116Z,33.22
2017-09-24T06:03:55.328Z,27.86
2017-09-24T06:06:23.582Z,29.62
2017-09-24T06:08:51.887Z,35.70
2017-09-24T06:11:20.153Z,32.10
2017-09-24T06:13:49.787Z,30.18
2017-09-24T06:16:18.066Z,36.16
2017-09-24T06:18:46.350Z,31.18
2017-09-24T06:21:14.652Z,32.64
2017-09-24T06:24:00.031Z,28.38
2017-09-24T06:26:28.328Z,29.36
2017-09-24T06:28:58.748Z,33.84
2017-09-24T06:31:27.039Z,27.36
2017-09-24T06:33:58.948Z,33.46
2017-09-24T06:36:27.225Z,34.32
2017-09-24T06:38:59.967Z,32.44
2017-09-24T06:41:28.317Z,35.08
2017-09-24T06:44:00.046Z,37.18
2017-09-24T06:46:28.358Z,39.82
2017-09-24T06:48:58.533Z,32.68
2017-09-24T06:51:26.845Z,40.54
2017-09-24T06:53:55.126Z,38.58
2017-09-24T06:56:23.379Z,41.64
2017-09-24T06:58:51.678Z,40.74
2017-09-24T07:01:21.459Z,44.08
2017-09-24T07:03:49.789Z,40.34
2017-09-24T07:06:22.102Z,39.84
2017-09-24T07:08:50.366Z,37.32
2017-09-24T07:11:18.655Z,42.90
2017-09-24T07:13:46.906Z,40.48
2017-09-24T07:16:15.201Z,47.24
2017-09-24T07:18:43.491Z,44.72
2017-09-24T07:21:12.664Z,44.08
2017-09-24T07:23:40.932Z,50.00
2017-09-24T07:26:09.219Z,45.02
2017-09-24T07:28:37.510Z,51.00
2017-09-24T07:31:06.718Z,54.12
2017-09-24T07:33:34.981Z,56.68
2017-09-24T07:36:05.265Z,48.82
2017-09-24T07:38:34.445Z,48.56
2017-09-24T07:41:03.432Z,45.02
2017-09-24T07:43:31.731Z,49.12
2017-09-24T07:46:00.010Z,43.12
2017-09-24T07:48:28.254Z,47.82
2017-09-24T07:50:56.548Z,46.26
2017-09-24T07:53:24.814Z,48.76
2017-09-24T07:55:53.117Z,50.64
2017-09-24T07:58:21.801Z,47.46
2017-09-24T08:00:51.116Z,52.34
2017-09-24T08:03:19.708Z,62.14
2017-09-24T08:05:48.000Z,64.00
2017-09-24T08:08:16.260Z,58.04
2017-09-24T08:10:48.061Z,56.58
2017-09-24T08:13:16.311Z,74.58
2017-09-24T08:15:48.265Z,60.42
2017-09-24T08:18:16.533Z,65.18
2017-09-24T08:20:44.844Z,67.28
2017-09-24T08:23:13.091Z,71.54
2017-09-24T08:25:44.678Z,67.08
2017-09-24T08:28:12.944Z,78.36
2017-09-24T08:31:01.854Z,80.04
2017-09-24T08:33:30.118Z,87.36
2017-09-24T08:36:01.971Z,82.98
2017-09-24T08:38:30.230Z,99.18
2017-09-24T08:40:58.504Z,92.44
2017-09-24T08:43:26.809Z,91.08
2017-09-24T08:45:55.066Z,103.42
2017-09-24T08:48:23.371Z,118.44
2017-09-24T08:50:51.645Z,125.76
2017-09-24T08:53:20.604Z,115.22
2017-09-24T08:55:48.147Z,118.70
2017-09-24T08:58:16.417Z,98.40
2017-09-24T09:00:44.679Z,132.56
2017-09-24T09:03:12.954Z,131.48
2017-09-24T09:05:41.229Z,126.64
2017-09-24T09:08:08.767Z,105.20
2017-09-24T09:10:37.037Z,116.08
2017-09-24T09:13:05.310Z,111.18
2017-09-24T09:15:34.427Z,108.16
2017-09-24T09:18:03.320Z,102.20
2017-09-24T09:20:31.607Z,113.90
2017-09-24T09:22:59.881Z,109.54
2017-09-24T09:25:28.192Z,119.88
2017-09-24T09:27:56.454Z,102.64
2017-09-24T09:30:24.788Z,106.66
2017-09-24T09:33:04.916Z,107.44
2017-09-24T09:35:34.350Z,106.86
2017-09-24T09:38:03.416Z,113.52
2017-09-24T09:40:31.707Z,102.20
2017-09-24T09:42:59.987Z,94.80
2017-09-24T09:45:40.177Z,107.42
2017-09-24T09:48:08.443Z,99.96
2017-09-24T09:50:36.691Z,94.32
2017-09-24T09:53:05.255Z,91.02
2017-09-24T09:55:34.522Z,91.76
2017-09-24T09:58:02.027Z,83.30
2017-09-24T10:00:30.323Z,85.68
2017-09-24T10:02:58.574Z,85.18
2017-09-24T10:05:26.856Z,93.64
2017-09-24T10:08:07.093Z,81.66
2017-09-24T10:10:35.361Z,98.40
2017-09-24T10:13:04.533Z,82.98
2017-09-24T10:15:32.867Z,87.22
2017-09-24T10:18:01.167Z,85.66
2017-09-24T10:20:29.431Z,75.58
2017-09-24T10:22:57.722Z,86.68
2017-09-24T10:25:26.001Z,81.20
2017-09-24T10:27:54.263Z,79.76
2017-09-24T10:30:34.587Z,76.10
2017-09-24T10:33:02.865Z,67.90
2017-09-24T10:35:31.175Z,82.04
2017-09-24T10:37:59.452Z,68.74
2017-09-24T10:40:27.702Z,69.16
2017-09-24T10:42:56.002Z,67.74
2017-09-24T10:45:23.499Z,57.70
2017-09-24T10:47:51.799Z,56.90
2017-09-24T10:50:20.900Z,50.14
2017-09-24T10:52:49.925Z,57.22
2017-09-24T10:55:18.226Z,59.54
2017-09-24T10:57:45.741Z,57.96
2017-09-24T11:00:14.009Z,51.56
2017-09-24T11:02:42.291Z,57.84
2017-09-24T11:05:09.798Z,56.90
2017-09-24T11:07:38.105Z,56.80
2017-09-24T11:10:06.371Z,52.88
2017-09-24T11:12:35.534Z,53.14
2017-09-24T11:15:04.191Z,54.38
2017-09-24T11:17:32.447Z,50.74
2017-09-24T11:20:00.731Z,53.32
2017-09-24T11:22:29.014Z,45.18
2017-09-24T11:24:57.277Z,43.74
2017-09-24T11:27:25.550Z,47.92
2017-09-24T11:29:53.823Z,44.52
2017-09-24T11:32:22.119Z,47.76
2017-09-24T11:34:50.381Z,57.54
2017-09-24T11:37:18.651Z,54.84
2017-09-24T11:39:46.947Z,50.04
2017-09-24T11:42:15.211Z,49.82
2017-09-24T11:44:43.503Z,53.66
2017-09-24T11:47:11.767Z,47.04
2017-09-24T11:49:40.019Z,51.80
2017-09-24T11:52:07.539Z,46.16
2017-09-24T11:54:35.844Z,43.40
2017-09-24T11:57:05.211Z,43.60
2017-09-24T11:59:34.370Z,44.38
2017-09-24T12:02:03.245Z,44.76
2017-09-24T12:04:30.739Z,42.32
2017-09-24T12:06:59.003Z,39.90
2017-09-24T12:09:27.299Z,48.16
2017-09-24T12:11:55.612Z,42.08
2017-09-24T12:14:23.876Z,38.26
2017-09-24T12:16:52.064Z,38.02
2017-09-24T12:19:20.331Z,36.94
2017-09-24T12:21:48.599Z,36.54
2017-09-24T12:24:16.890Z,35.72
2017-09-24T12:26:44.384Z,37.00
2017-09-24T12:29:12.678Z,34.62
2017-09-24T12:31:40.943Z,38.62
2017-09-24T12:34:09.200Z,32.68
2017-09-24T12:36:37.487Z,36.74
2017-09-24T12:39:05.742Z,34.96
2017-09-24T12:41:35.047Z,36.58
2017-09-24T12:44:04.731Z,37.22
2017-09-24T12:46:34.460Z,38.94
2017-09-24T12:49:03.542Z,37.08
2017-09-24T12:51:31.794Z,36.12
2017-09-24T12:54:00.051Z,34.96
2017-09-24T12:56:28.330Z,33.86
2017-09-24T12:58:56.830Z,34.12
2017-09-24T13:01:25.127Z,39.62
2017-09-24T13:03:53.382Z,41.64
2017-09-24T13:06:21.680Z,33.40
2017-09-24T13:08:50.572Z,32.32
2017-09-24T13:11:18.857Z,33.98
2017-09-24T13:13:47.169Z,36.74
2017-09-24T13:16:15.423Z,37.54
2017-09-24T13:18:43.759Z,33.52
2017-09-24T13:21:12.020Z,39.46
2017-09-24T13:23:40.278Z,37.32
2017-09-24T13:26:08.573Z,38.62
2017-09-24T13:28:36.064Z,35.14
2017-09-24T13:31:04.894Z,34.36
2017-09-24T13:33:34.286Z,32.24
2017-09-24T13:36:04.125Z,31.78
2017-09-24T13:38:32.440Z,32.34
2017-09-24T13:41:00.717Z,39.88
2017-09-24T13:43:29.002Z,36.82
2017-09-24T13:45:57.254Z,34.20
2017-09-24T13:48:25.538Z,31.70
2017-09-24T13:50:53.819Z,32.90
2017-09-24T13:53:22.071Z,34.78
2017-09-24T13:55:50.361Z,34.18
2017-09-24T13:58:18.628Z,36.46
2017-09-24T14:00:46.942Z,36.44
2017-09-24T14:03:15.195Z,31.12
2017-09-24T14:05:43.446Z,31.40
2017-09-24T14:08:11.739Z,32.00
2017-09-24T14:10:40.036Z,29.76
2017-09-24T14:13:08.333Z,29.04
2017-09-24T14:15:36.636Z,30.58
2017-09-24T14:18:10.643Z,30.32
2017-09-24T14:20:38.938Z,30.16
2017-09-24T14:23:07.203Z,31.20
2017-09-24T14:25:35.458Z,33.92
2017-09-24T14:28:03.747Z,31.46
2017-09-24T14:30:32.011Z,28.36
2017-09-24T14:33:00.307Z,28.90
2017-09-24T14:35:28.599Z,26.32
2017-09-24T14:37:56.856Z,26.74
2017-09-24T14:40:25.143Z,27.66
2017-09-24T14:42:53.402Z,32.48
2017-09-24T14:45:22.020Z,33.68
2017-09-24T14:47:51.102Z,37.54
2017-09-24T14:50:19.957Z,30.48
2017-09-24T14:52:48.214Z,27.52
2017-09-24T14:55:16.480Z,24.04
2017-09-24T14:57:44.812Z,30.12
2017-09-24T15:00:13.063Z,26.54
2017-09-24T15:02:41.306Z,26.20
2017-09-24T15:05:09.600Z,34.48
2017-09-24T15:07:37.902Z,24.20
2017-09-24T15:10:06.156Z,22.36
2017-09-24T15:12:35.250Z,28.90
2017-09-24T15:15:04.173Z,26.46
2017-09-24T15:17:32.452Z,27.00
2017-09-24T15:20:00.770Z,26.98
2017-09-24T15:22:29.075Z,22.20
2017-09-24T15:24:57.331Z,26.02
2017-09-24T15:27:25.618Z,24.48
2017-09-24T15:29:53.883Z,23.36
2017-09-24T15:32:22.186Z,25.64
2017-09-24T15:34:50.750Z,23.32
2017-09-24T15:37:19.015Z,21.76
2017-09-24T15:39:47.306Z,25.52
2017-09-24T15:42:15.567Z,24.96
2017-09-24T15:44:43.869Z,23.96
2017-09-24T15:47:12.193Z,20.38
2017-09-24T15:49:40.451Z,21.50
2017-09-24T15:52:08.710Z,25.24
2017-09-24T15:54:37.012Z,22.48
2017-09-24T15:57:05.311Z,20.56
2017-09-24T15:59:34.192Z,22.32
2017-09-24T16:02:04.303Z,22.78
2017-09-24T16:04:34.281Z,21.92
2017-09-24T16:07:03.203Z,21.70
2017-09-24T16:09:31.467Z,20.92
2017-09-24T16:11:59.790Z,20.44
2017-09-24T16:14:27.283Z,21.38
2017-09-24T16:16:55.555Z,22.40
2017-09-24T16:19:23.855Z,21.86
2017-09-24T16:21:52.123Z,21.62
2017-09-24T16:24:20.797Z,20.70
2017-09-24T16:26:48.319Z,20.22
2017-09-24T16:29:16.597Z,23.66
2017-09-24T16:31:44.888Z,20.84
2017-09-24T16:34:13.151Z,23.72
2017-09-24T16:36:41.486Z,21.30
2017-09-24T16:39:09.761Z,19.08
2017-09-24T16:41:38.081Z,21.40
2017-09-24T16:44:06.385Z,22.22
2017-09-24T16:46:35.166Z,21.88
2017-09-24T16:49:04.246Z,21.14
2017-09-24T16:51:33.850Z,21.48
2017-09-24T16:54:02.128Z,21.14
2017-09-24T16:56:30.429Z,26.20
2017-09-24T16:58:58.701Z,23.32
2017-09-24T17:01:27.006Z,23.56
2017-09-24T17:03:55.273Z,23.80
2017-09-24T17:06:23.568Z,21.90
2017-09-24T17:08:52.037Z,22.98
2017-09-24T17:11:21.097Z,21.98
2017-09-24T17:13:49.455Z,24.94
2017-09-24T17:16:17.022Z,24.24
2017-09-24T17:18:45.278Z,24.14
2017-09-24T17:21:13.575Z,20.76
2017-09-24T17:23:41.844Z,26.20
2017-09-24T17:26:10.106Z,24.42
2017-09-24T17:28:38.390Z,24.08
2017-09-24T17:31:06.651Z,23.64
2017-09-24T17:33:35.080Z,24.30
2017-09-24T17:36:04.060Z,23.66
2017-09-24T17:38:32.321Z,22.80
2017-09-24T17:41:00.602Z,22.76
2017-09-24T17:43:28.898Z,22.98
2017-09-24T17:45:57.187Z,24.66
2017-09-24T17:48:25.463Z,27.48
2017-09-24T17:50:53.733Z,23.14
2017-09-24T17:53:22.144Z,26.86
2017-09-24T17:55:50.399Z,27.38
2017-09-24T17:58:18.683Z,30.14
2017-09-24T18:00:46.948Z,27.42
2017-09-24T18:03:15.234Z,23.74
2017-09-24T18:05:43.515Z,26.36
2017-09-24T18:08:11.781Z,25.02
2017-09-24T18:10:40.076Z,24.78
2017-09-24T18:13:08.371Z,26.04
2017-09-24T18:15:36.632Z,30.88
2017-09-24T18:18:05.209Z,31.22
2017-09-24T18:20:34.341Z,32.12
2017-09-24T18:23:03.416Z,42.20
2017-09-24T18:25:31.670Z,46.36
2017-09-24T18:27:59.970Z,51.48
2017-09-24T18:30:28.231Z,58.76
2017-09-24T18:32:56.534Z,54.28
2017-09-24T18:35:24.835Z,55.98
2017-09-24T18:37:53.104Z,66.28
2017-09-24T18:40:22.015Z,62.34
2017-09-24T18:42:50.959Z,61.84
2017-09-24T18:45:19.215Z,57.72
2017-09-24T18:47:48.427Z,50.54
2017-09-24T18:50:16.720Z,49.78
2017-09-24T18:52:44.978Z,46.32
2017-09-24T18:55:13.285Z,40.52
2017-09-24T18:57:41.556Z,39.16
2017-09-24T19:00:09.847Z,34.46
2017-09-24T19:02:37.393Z,39.02
2017-09-24T19:05:09.342Z,36.32
2017-09-24T19:07:37.640Z,40.22
2017-09-24T19:10:05.921Z,40.84
2017-09-24T19:12:35.145Z,37.40
2017-09-24T19:15:03.498Z,37.12
2017-09-24T19:17:31.796Z,39.58
2017-09-24T19:20:00.050Z,38.86
2017-09-24T19:22:28.340Z,32.18
2017-09-24T19:24:56.599Z,32.92
2017-09-24T19:27:24.890Z,35.30
2017-09-24T19:29:53.146Z,36.94
2017-09-24T19:32:22.447Z,30.30
2017-09-24T19:34:51.488Z,32.22
2017-09-24T19:37:20.765Z,31.76
2017-09-24T19:39:49.072Z,36.24
2017-09-24T19:42:17.328Z,35.64
2017-09-24T19:44:45.595Z,35.30
2017-09-24T19:47:13.925Z,30.60
2017-09-24T19:49:42.203Z,24.44
2017-09-24T19:52:10.469Z,21.60
2017-09-24T19:54:38.785Z,19.52
2017-09-24T19:57:07.047Z,18.60
2017-09-24T19:59:35.334Z,20.84
2017-09-24T20:02:04.160Z,17.26
2017-09-24T20:04:32.460Z,17.94
2017-09-24T20:07:00.764Z,19.42
2017-09-24T20:09:29.034Z,20.20
2017-09-24T20:11:57.347Z,16.46
2017-09-24T20:14:25.611Z,17.64
2017-09-24T20:16:53.870Z,22.24
2017-09-24T20:19:22.168Z,19.54
2017-09-24T20:21:50.311Z,16.02
2017-09-24T20:24:18.603Z,15.04
2017-09-24T20:26:46.139Z,17.54
2017-09-24T20:29:14.400Z,15.90
2017-09-24T20:31:42.673Z,15.24
2017-09-24T20:34:10.985Z,14.94
2017-09-24T20:36:39.254Z,16.06
2017-09-24T20:39:07.544Z,20.32
2017-09-24T20:41:35.159Z,15.30
2017-09-24T20:44:04.729Z,16.20
2017-09-24T20:46:34.172Z,15.90
2017-09-24T20:49:02.480Z,15.14
2017-09-24T20:51:30.800Z,14.72
2017-09-24T20:53:59.075Z,16.46
2017-09-24T20:56:27.394Z,14.46
2017-09-24T20:58:55.659Z,16.40
2017-09-24T21:01:23.964Z,14.74
2017-09-24T21:03:52.270Z,13.54
2017-09-24T21:06:20.531Z,16.30
2017-09-24T21:08:48.026Z,15.26
2017-09-24T21:11:16.335Z,17.22
2017-09-24T21:13:44.596Z,15.88
2017-09-24T21:16:12.850Z,16.34
2017-09-24T21:18:41.140Z,15.00
2017-09-24T21:21:09.426Z,16.78
2017-09-24T21:23:37.693Z,14.16
2017-09-24T21:26:05.944Z,14.68
2017-09-24T21:28:35.327Z,16.20
2017-09-24T21:31:04.644Z,16.06
2017-09-24T21:33:32.935Z,15.90
2017-09-24T21:36:01.211Z,14.32
2017-09-24T21:38:29.504Z,15.40
2017-09-24T21:40:57.786Z,17.46
2017-09-24T21:43:26.087Z,16.48
2017-09-24T21:45:53.592Z,17.50
2017-09-24T21:48:21.850Z,16.58
2017-09-24T21:50:51.344Z,17.26
2017-09-24T21:53:20.145Z,17.62
2017-09-24T21:55:48.404Z,16.42
2017-09-24T21:58:16.676Z,18.14
2017-09-24T22:00:44.971Z,14.82
2017-09-24T22:03:13.246Z,18.52
2017-09-24T22:05:41.552Z,16.88
2017-09-24T22:08:09.807Z,14.12
2017-09-24T22:10:38.067Z,20.24
2017-09-24T22:13:06.355Z,17.74
2017-09-24T22:15:37.219Z,15.44
2017-09-24T22:18:05.510Z,18.60
2017-09-24T22:20:33.766Z,16.16
2017-09-24T22:23:02.034Z,14.68
2017-09-24T22:25:30.314Z,22.56
2017-09-24T22:27:58.566Z,14.62
2017-09-24T22:30:26.889Z,15.32
2017-09-24T22:32:55.153Z,16.94
2017-09-24T22:35:23.406Z,14.98
2017-09-24T22:37:51.699Z,16.02
2017-09-24T22:40:20.935Z,16.70
2017-09-24T22:42:49.195Z,16.48
2017-09-24T22:45:17.497Z,15.92
2017-09-24T22:47:45.757Z,18.90
2017-09-24T22:50:14.068Z,19.48
2017-09-24T22:52:42.340Z,15.64
2017-09-24T22:55:10.605Z,16.48
2017-09-24T22:57:38.916Z,17.26
2017-09-24T23:00:07.182Z,17.42
2017-09-24T23:02:35.449Z,16.16
2017-09-24T23:05:03.983Z,24.42
2017-09-24T23:07:32.267Z,16.86
2017-09-24T23:10:00.528Z,17.22
2017-09-24T23:12:28.822Z,20.10
2017-09-24T23:14:57.103Z,18.30
2017-09-24T23:17:25.402Z,17.64
2017-09-24T23:19:53.663Z,16.94
2017-09-24T23:22:21.919Z,19.42
2017-09-24T23:24:51.123Z,18.38
2017-09-24T23:27:20.175Z,19.44
2017-09-24T23:29:48.431Z,20.80
2017-09-24T23:32:21.673Z,21.82
2017-09-24T23:34:50.983Z,19.84
2017-09-24T23:37:19.246Z,24.18
2017-09-24T23:39:47.499Z,25.04
2017-09-24T23:42:16.708Z,20.24
2017-09-24T23:44:44.208Z,22.92
2017-09-24T23:47:12.462Z,20.30
2017-09-24T23:49:40.764Z,21.74
2017-09-24T23:52:09.027Z,20.98
2017-09-24T23:54:37.290Z,23.54
2017-09-24T23:57:05.581Z,24.20
2017-09-24T23:59:33.838Z,20.98
